createdAt,value
2018-12-24T00:02:10.481Z,2.03
2018-12-24T00:07:11.717Z,0.80
2018-12-24T00:12:13.059Z,0.30
2018-12-24T00:17:14.293Z,0.20
2018-12-24T00:22:15.529Z,0.30
2018-12-24T00:27:17.080Z,0.63
2018-12-24T00:32:18.303Z,0.40
2018-12-24T00:37:19.544Z,0.50
2018-12-24T00:42:20.765Z,0.70
2018-12-24T00:47:22.107Z,1.50
2018-12-24T00:52:23.329Z,0.10
2018-12-24T00:57:24.549Z,0.27
2018-12-24T01:02:25.768Z,0.77
2018-12-24T01:07:26.983Z,0.30
2018-12-24T01:12:28.215Z,0.40
2018-12-24T01:17:29.427Z,0.07
2018-12-24T01:22:30.655Z,0.30
2018-12-24T01:27:31.891Z,0.77
2018-12-24T01:32:33.112Z,0.20
2018-12-24T01:37:34.373Z,0.10
2018-12-24T01:42:35.655Z,0.57
2018-12-24T01:47:37.259Z,0.37
2018-12-24T01:52:38.560Z,0.27
2018-12-24T01:57:39.770Z,0.10
2018-12-24T02:02:40.991Z,1.73
2018-12-24T02:07:42.217Z,0.20
2018-12-24T02:12:43.464Z,0.20
2018-12-24T02:17:44.683Z,0.83
2018-12-24T02:22:45.936Z,0.70
2018-12-24T02:27:48.082Z,0.20
2018-12-24T02:32:49.283Z,1.93
2018-12-24T02:37:50.536Z,2.57
2018-12-24T02:42:52.464Z,1.40
2018-12-24T02:47:54.179Z,0.83
2018-12-24T02:52:55.415Z,1.07
2018-12-24T02:57:56.621Z,1.30
2018-12-24T03:02:57.832Z,0.70
2018-12-24T03:07:59.054Z,1.07
2018-12-24T03:13:02.737Z,2.07
2018-12-24T03:18:03.407Z,0.53
2018-12-24T03:23:04.671Z,2.23
2018-12-24T03:28:05.860Z,1.57
2018-12-24T03:33:07.106Z,1.33
2018-12-24T03:38:12.102Z,0.47
2018-12-24T03:43:13.324Z,1.53
2018-12-24T03:48:14.672Z,0.47
2018-12-24T03:53:15.899Z,2.40
2018-12-24T03:58:17.135Z,1.13
2018-12-24T04:03:18.349Z,0.67
2018-12-24T04:08:19.563Z,0.70
2018-12-24T04:13:22.571Z,0.90
2018-12-24T04:18:23.951Z,1.67
2018-12-24T04:23:25.162Z,0.83
2018-12-24T04:28:27.409Z,0.10
2018-12-24T04:33:28.639Z,0.90
2018-12-24T04:38:29.976Z,0.33
2018-12-24T04:43:32.378Z,0.30
2018-12-24T04:48:34.129Z,1.23
2018-12-24T04:53:35.345Z,0.37
2018-12-24T04:58:36.590Z,0.60
2018-12-24T05:03:37.809Z,4.10
2018-12-24T05:08:39.022Z,0.77
2018-12-24T05:13:40.975Z,1.20
2018-12-24T05:18:42.572Z,1.40
2018-12-24T05:23:43.798Z,1.60
2018-12-24T05:28:44.997Z,0.93
2018-12-24T05:33:46.219Z,1.00
2018-12-24T05:38:47.463Z,2.40
2018-12-24T05:43:49.484Z,0.73
2018-12-24T05:48:51.558Z,0.70
2018-12-24T05:53:52.759Z,1.17
2018-12-24T05:58:53.974Z,3.37
2018-12-24T06:03:57.124Z,0.93
2018-12-24T06:08:58.378Z,0.93
2018-12-24T06:13:59.594Z,0.63
2018-12-24T06:19:00.819Z,1.60
2018-12-24T06:24:02.451Z,1.30
2018-12-24T06:29:03.783Z,1.03
2018-12-24T06:34:05.008Z,2.27
2018-12-24T06:39:06.256Z,4.20
2018-12-24T06:44:07.468Z,10.27
2018-12-24T06:49:08.702Z,2.77
2018-12-24T06:54:09.920Z,4.53
2018-12-24T06:59:11.150Z,1.57
2018-12-24T07:04:12.339Z,0.93
2018-12-24T07:09:13.690Z,0.47
2018-12-24T07:14:15.547Z,0.90
2018-12-24T07:19:17.133Z,0.50
2018-12-24T07:24:18.355Z,0.70
2018-12-24T07:29:19.580Z,0.60
2018-12-24T07:34:20.798Z,0.80
2018-12-24T07:39:22.035Z,2.97
2018-12-24T07:44:24.321Z,2.60
2018-12-24T07:49:25.890Z,2.10
2018-12-24T07:54:27.112Z,1.43
2018-12-24T07:59:28.639Z,4.77
2018-12-24T08:04:29.864Z,4.87
2018-12-24T08:09:31.096Z,2.37
2018-12-24T08:14:33.246Z,4.20
2018-12-24T08:19:35.140Z,4.87
2018-12-24T08:24:36.383Z,1.40
2018-12-24T08:29:38.312Z,2.00
2018-12-24T08:34:39.548Z,4.20
2018-12-24T08:39:40.799Z,4.57
2018-12-24T08:44:42.217Z,7.40
2018-12-24T08:49:43.675Z,9.40
2018-12-24T08:54:44.903Z,5.20
2018-12-24T08:59:46.134Z,2.17
2018-12-24T09:04:47.346Z,3.23
2018-12-24T09:09:48.568Z,5.73
2018-12-24T09:14:50.366Z,5.57
2018-12-24T09:19:52.008Z,4.83
2018-12-24T09:24:53.228Z,4.73
2018-12-24T09:29:54.468Z,2.80
2018-12-24T09:34:55.688Z,2.33
2018-12-24T09:39:56.907Z,4.03
2018-12-24T09:44:59.075Z,2.40
2018-12-24T09:50:00.639Z,2.00
2018-12-24T09:55:02.018Z,3.70
2018-12-24T10:00:07.053Z,4.27
2018-12-24T10:05:08.481Z,2.13
2018-12-24T10:10:09.816Z,2.40
2018-12-24T10:15:11.048Z,1.10
2018-12-24T10:20:12.313Z,3.70
2018-12-24T10:25:13.528Z,1.80
2018-12-24T10:30:14.853Z,3.00
2018-12-24T10:35:16.075Z,1.30
2018-12-24T10:40:17.423Z,3.00
2018-12-24T10:45:18.663Z,2.70
2018-12-24T10:50:20.020Z,1.77
2018-12-24T10:55:21.249Z,4.33
2018-12-24T11:00:22.485Z,0.83
2018-12-24T11:06:28.195Z,1.57
2018-12-24T11:11:29.997Z,1.20
2018-12-24T11:16:31.230Z,1.40
2018-12-24T11:21:32.344Z,1.60
2018-12-24T11:26:33.444Z,1.07
2018-12-24T11:31:34.568Z,1.40
2018-12-24T11:36:35.680Z,3.57
2018-12-24T11:41:36.814Z,4.80
2018-12-24T11:46:37.918Z,3.50
2018-12-24T11:51:39.048Z,4.63
2018-12-24T11:56:40.156Z,4.60
2018-12-24T12:01:41.244Z,4.37
2018-12-24T12:06:42.368Z,9.90
2018-12-24T12:11:43.468Z,3.27
2018-12-24T12:16:44.592Z,4.40
2018-12-24T12:21:45.716Z,3.20
2018-12-24T12:26:47.920Z,3.03
2018-12-24T12:31:51.057Z,4.43
2018-12-24T12:36:52.041Z,3.07
2018-12-24T12:41:53.144Z,4.37
2018-12-24T12:46:54.254Z,2.60
2018-12-24T12:51:55.374Z,1.87
2018-12-24T12:56:56.489Z,4.13
2018-12-24T13:01:57.595Z,3.33
2018-12-24T13:06:58.722Z,3.37
2018-12-24T13:11:59.823Z,5.23
2018-12-24T13:17:00.952Z,3.03
2018-12-24T13:22:04.393Z,5.77
2018-12-24T13:27:06.897Z,6.90
2018-12-24T13:32:08.062Z,3.63
2018-12-24T13:37:09.162Z,5.60
2018-12-24T13:42:10.262Z,3.10
2018-12-24T13:47:11.347Z,3.70
2018-12-24T13:52:12.504Z,3.80
2018-12-24T13:57:13.591Z,9.27
2018-12-24T14:02:16.521Z,5.53
2018-12-24T14:07:18.792Z,2.63
2018-12-24T14:12:19.988Z,3.30
2018-12-24T14:17:21.179Z,2.27
2018-12-24T14:22:22.275Z,3.67
2018-12-24T14:27:23.412Z,2.80
2018-12-24T14:32:24.519Z,2.67
2018-12-24T14:37:25.610Z,6.90
2018-12-24T14:42:26.799Z,6.33
2018-12-24T14:47:27.875Z,3.40
2018-12-24T14:52:28.995Z,4.17
2018-12-24T14:57:30.120Z,3.53
2018-12-24T15:02:31.224Z,2.37
2018-12-24T15:07:32.371Z,5.93
2018-12-24T15:12:33.659Z,4.43
2018-12-24T15:17:34.777Z,6.03
2018-12-24T15:22:35.900Z,4.63
2018-12-24T15:27:37.026Z,4.33
2018-12-24T15:32:38.119Z,3.07
2018-12-24T15:37:39.215Z,5.07
2018-12-24T15:42:40.316Z,6.27
2018-12-24T15:47:41.424Z,6.50
2018-12-24T15:52:42.595Z,5.03
2018-12-24T15:57:43.684Z,7.47
2018-12-24T16:02:44.788Z,3.93
2018-12-24T16:07:45.911Z,5.53
2018-12-24T16:12:47.015Z,5.33
2018-12-24T16:17:48.127Z,5.40
2018-12-24T16:22:49.231Z,13.67
2018-12-24T16:27:50.823Z,14.20
2018-12-24T16:32:51.924Z,24.80
2018-12-24T16:37:53.016Z,23.70
2018-12-24T16:42:54.148Z,18.10
2018-12-24T16:47:55.240Z,15.07
2018-12-24T16:52:56.370Z,7.47
2018-12-24T16:57:57.483Z,6.13
2018-12-24T17:02:58.586Z,9.77
2018-12-24T17:07:59.718Z,12.27
2018-12-24T17:13:00.822Z,11.27
2018-12-24T17:18:02.227Z,8.37
2018-12-24T17:23:03.536Z,7.23
2018-12-24T17:28:04.635Z,5.77
2018-12-24T17:33:05.748Z,6.03
2018-12-24T17:38:06.841Z,7.60
2018-12-24T17:43:07.931Z,5.47
2018-12-24T17:48:09.066Z,6.33
2018-12-24T17:53:10.175Z,7.93
2018-12-24T17:58:11.264Z,6.30
2018-12-24T18:03:12.364Z,5.33
2018-12-24T18:08:13.476Z,5.83
2018-12-24T18:13:14.575Z,6.47
2018-12-24T18:18:15.699Z,6.43
2018-12-24T18:23:19.862Z,7.93
2018-12-24T18:28:20.936Z,7.77
2018-12-24T18:33:22.036Z,7.37
2018-12-24T18:38:23.130Z,6.90
2018-12-24T18:43:24.224Z,17.70
2018-12-24T18:48:25.324Z,8.50
2018-12-24T18:53:26.440Z,8.70
2018-12-24T18:58:27.727Z,9.50
2018-12-24T19:03:28.844Z,8.30
2018-12-24T19:08:29.990Z,16.10
2018-12-24T19:13:31.095Z,13.87
2018-12-24T19:18:32.190Z,23.43
2018-12-24T19:23:33.293Z,11.83
2018-12-24T19:28:34.397Z,16.63
2018-12-24T19:33:37.427Z,12.63
2018-12-24T19:38:38.527Z,16.10
2018-12-24T19:43:39.635Z,19.73
2018-12-24T19:48:40.755Z,22.50
2018-12-24T19:53:41.855Z,18.00
2018-12-24T19:58:42.971Z,17.43
2018-12-24T20:03:44.073Z,16.77
2018-12-24T20:08:45.187Z,20.87
2018-12-24T20:13:46.296Z,19.23
2018-12-24T20:18:47.466Z,25.57
2018-12-24T20:23:48.655Z,24.87
2018-12-24T20:28:49.758Z,23.30
2018-12-24T20:33:50.871Z,24.80
2018-12-24T20:38:52.087Z,23.60
2018-12-24T20:43:53.368Z,22.13
2018-12-24T20:48:54.630Z,20.13
2018-12-24T20:53:56.122Z,24.60
2018-12-24T20:58:58.266Z,23.47
2018-12-24T21:03:59.771Z,21.80
2018-12-24T21:09:00.981Z,18.03
2018-12-24T21:14:02.089Z,26.43
2018-12-24T21:19:03.195Z,22.63
2018-12-24T21:24:04.301Z,21.53
2018-12-24T21:29:05.411Z,17.40
2018-12-24T21:34:06.508Z,16.90
2018-12-24T21:39:07.616Z,14.40
2018-12-24T21:44:08.723Z,20.77
2018-12-24T21:49:09.820Z,20.87
2018-12-24T21:54:10.957Z,21.90
2018-12-24T21:59:12.067Z,26.03
2018-12-24T22:04:13.172Z,20.87
2018-12-24T22:09:14.393Z,18.17
2018-12-24T22:14:15.497Z,24.83
2018-12-24T22:19:16.925Z,23.80
2018-12-24T22:24:18.030Z,25.60
2018-12-24T22:29:19.135Z,22.27
2018-12-24T22:34:20.261Z,21.20
2018-12-24T22:39:21.364Z,19.03
2018-12-24T22:44:22.457Z,20.30
2018-12-24T22:49:23.576Z,16.10
2018-12-24T22:54:24.693Z,10.33
2018-12-24T22:59:25.788Z,14.13
2018-12-24T23:04:26.889Z,13.20
2018-12-24T23:09:28.248Z,15.50
2018-12-24T23:14:29.353Z,16.73
2018-12-24T23:19:30.447Z,21.60
2018-12-24T23:24:31.549Z,18.63
2018-12-24T23:29:32.680Z,15.00
2018-12-24T23:34:33.801Z,13.33
2018-12-24T23:39:34.899Z,17.10
2018-12-24T23:44:35.999Z,34.83
2018-12-24T23:49:37.128Z,27.80
2018-12-24T23:54:38.224Z,12.57
2018-12-24T23:59:39.357Z,11.83
